Ormsby, MN (56162)

8:50 AM CST on February 09, 2016 (GMT -0600)
NuWay Coop - Ormsby | | Change Station
CLOSE
Current Station
Personal Weather Station
Location: Ormsby, MN
Elevation: 1187 ft
Nearby Weather Stations

Elev 1187 ft 43.85 °N, 94.70 °W | Updated 11 minutes ago

Clear
Clear
5.1 °F
Feels Like -16 °F
N
21.0
Wind Variable Wind from NW
Gusts 31.0 mph

Today
High -- | Low -- °F
--% Chance of Precip.
Yesterday
High -- | Low -- °F
Precip. -- in
Pressure 30.16 in
Visibility 10.0 miles
Clouds Clear
Windchill -16 °F
Dew Point 1 °F
Humidity 82%
Rainfall 0.00 in
Snow Depth Not available.
7:26 AM 5:39 PM
New Moon, 1% visible
METAR KJYG 091434Z AUTO 31019G23KT 10SM CLR M15/M18 A3016 RMK AO2
Pressure 30.16 in
Visibility 10.0 miles
Clouds Clear
Windchill -16 °F
Dew Point 1 °F
Humidity 82%
Rainfall 0.00 in
Snow Depth Not available.
7:26 AM 5:39 PM
New Moon, 1% visible
METAR KJYG 091434Z AUTO 31019G23KT 10SM CLR M15/M18 A3016 RMK AO2

10-Day Weather Forecast

Almanac

Astronomy

Feb. 09, 2016 Rise Set
Actual Time
Civil Twilight
Nautical Twilight
Astronomical Twilight
Moon
Length of Visible Light
Length of Day
Tomorrow will be .
, % of the Moon is Illuminated

Today's Extremes

State Highs State Lows

Community

WunderPhotos

Upload Photos

1,891,614 photos uploaded!

WunderBlog® & News

Nearby

Air Quality

  Air Quality AQ Index Pollutant
Not available.

Snow Depth

Station Depth Elevation

Earthquake Activity

City Distance Mag. Time & Date
Minimum magnitude displayed is 2.5.

Coastal Water Temperatures

Place Temperature

Stations

Nearby Weather Stations

Station Location Temp. Windchill Dew Point Humidity Wind Precip. Elev Updated Type
                   

Watches & Warnings

There are currently no watches in effect.